Flight Track Log - Related Links

Times and Time Zones

All times are in EDT time to prevent confusion due to time zone crossing. See the SWA796 flight status page for this flight to view local times or setup timezone preferences in your user account.

Time Position Orientation Groundspeed Altitude Reporting Facility
EDT Latitude Longitude Course Direction KTS MPH feet Rate Location/Type
Sat 12:57:07 PM 40.7647 -111.9739 227° Southwest 186 214 5,100  Level Salt Lake Center
Sat 12:57:37 PM 40.7461 -112.0000 227° Southwest 201 231 6,100 1,795 Climbing Salt Lake Center
Sat 12:59:04 PM 40.7736 -112.1347 285° West 300 345 8,600 1,933 Climbing Salt Lake Center
Sat 01:00:06 PM 40.8081 -112.2372 294° West 309 356 10,900 2,256 Climbing Salt Lake Center
Sat 01:01:09 PM 40.8572 -112.3436 301° West 343 395 13,300 2,064 Climbing Salt Lake Center
Sat 01:02:11 PM 40.9483 -112.4000 335° Northwest 363 418 15,200 2,129 Climbing Salt Lake Center
Sat 01:03:13 PM 41.0414 -112.4619 333° Northwest 373 429 17,700 2,032 Climbing Salt Lake Center
Sat 01:04:15 PM 41.1347 -112.5256 333° Northwest 376 433 19,400 1,766 Climbing Salt Lake Center
Sat 01:06:00 PM 41.2869 -112.6469 312° West  Level FlightAware Approximate
Sat 01:07:21 PM 41.4122 -112.8158 312° West 402 463 25,000  Level Salt Lake Center
Sat 01:08:23 PM 41.4886 -112.9339 311° West 418 481 26,500 1,392 Climbing Salt Lake Center
Sat 01:09:26 PM 41.5628 -113.0522 310° West 417 480 27,900 1,258 Climbing Salt Lake Center
Sat 01:10:27 PM 41.6436 -113.1708 312° West 428 493 29,100 1,610 Climbing Salt Lake Center
Sat 01:11:29 PM 41.7378 -113.3147 311° West 428 493 31,200 1,597 Climbing Salt Lake Center
Sat 01:12:31 PM 41.8119 -113.4336 310° West 418 481 32,400 1,258 Climbing Salt Lake Center
Sat 01:13:33 PM 41.8889 -113.5497 312° West 417 480 33,800 1,161 Climbing Salt Lake Center
Sat 01:14:35 PM 41.9550 -113.6717 306° West 409 471 34,800 1,065 Climbing Salt Lake Center
Sat 01:15:37 PM 42.0175 -113.7944 304° West 403 464 36,000 581 Climbing Salt Lake Center
Sat 01:16:39 PM 42.0814 -113.9169 305° West 400 460 36,000  Level Salt Lake Center
Sat 01:17:41 PM 42.1572 -114.0642 305° West 400 460 36,000  Level Salt Lake Center
Sat 01:18:43 PM 42.2222 -114.1883 305° West 408 470 36,000  Level Salt Lake Center
Sat 01:19:46 PM 42.2850 -114.3153 304° West 404 465 36,000  Level Salt Lake Center
Sat 01:20:48 PM 42.3494 -114.4397 305° West 404 465 36,000  Level Salt Lake Center
Sat 01:21:50 PM 42.4133 -114.5639 305° West 401 461 36,000  Level Salt Lake Center
Sat 01:22:52 PM 42.4769 -114.6900 304° West 405 466 36,000  Level Salt Lake Center
Sat 01:23:54 PM 42.5528 -114.8419 304° West 405 466 36,000  Level Salt Lake Center
Sat 01:24:56 PM 42.6164 -114.9689 304° West 408 470 36,000  Level Salt Lake Center
Sat 01:25:58 PM 42.6772 -115.0911 304° West 408 470 36,000  Level Salt Lake Center
Sat 01:27:00 PM 42.7472 -115.2317 304° West 403 464 36,000  Level Salt Lake Center
Sat 01:28:02 PM 42.8078 -115.3544 304° West 408 470 36,000  Level Salt Lake Center
Sat 01:29:04 PM 42.8783 -115.4969 304° West 405 466 36,000  Level Salt Lake Center
Sat 01:30:06 PM 42.9389 -115.6189 304° West 404 465 36,000  Level Salt Lake Center
Sat 01:31:08 PM 43.0083 -115.7608 304° West 402 463 36,000  Level Salt Lake Center
Sat 01:32:10 PM 43.0681 -115.8819 304° West 401 461 36,000  Level Salt Lake Center
Sat 01:33:12 PM 43.1297 -116.0117 303° West 417 480 36,000  Level Salt Lake Center
Sat 01:34:14 PM 43.1972 -116.1533 303° West 399 459 36,000  Level Salt Lake Center
Sat 01:35:16 PM 43.2569 -116.2769 304° West 403 464 36,000  Level Salt Lake Center
Sat 01:36:18 PM 43.3258 -116.4211 303° West 404 465 36,000  Level Salt Lake Center
Sat 01:37:20 PM 43.3844 -116.5450 303° West 405 466 36,000  Level Salt Lake Center
Sat 01:38:22 PM 43.4531 -116.6903 303° West 405 466 36,000  Level Salt Lake Center
Sat 01:39:24 PM 43.5125 -116.8147 303° West 406 467 36,000  Level Salt Lake Center
Sat 01:40:26 PM 43.5814 -116.9619 303° West 407 468 36,000  Level Salt Lake Center
Sat 01:41:28 PM 43.6406 -117.0875 303° West 406 467 36,000  Level Salt Lake Center
Sat 01:42:30 PM 43.6986 -117.2147 302° West 407 468 36,000  Level Salt Lake Center
Sat 01:43:32 PM 43.7683 -117.3628 303° West 409 471 36,000  Level Salt Lake Center
Sat 01:44:34 PM 43.8269 -117.4911 302° West 411 473 36,000  Level Salt Lake Center
Sat 01:45:36 PM 43.8958 -117.6403 303° West 411 473 36,000  Level Salt Lake Center
Sat 01:46:38 PM 43.9542 -117.7681 302° West 410 472 36,000  Level Salt Lake Center
Sat 01:47:41 PM 44.0208 -117.9169 302° West 406 467 36,000  Level Salt Lake Center
Sat 01:48:43 PM 44.0789 -118.0444 302° West 406 467 36,000  Level Salt Lake Center
Sat 01:49:45 PM 44.1458 -118.1914 302° West 402 463 36,000  Level Salt Lake Center
Sat 01:50:47 PM 44.2028 -118.3203 302° West 406 467 36,000  Level Salt Lake Center
Sat 01:51:49 PM 44.2672 -118.4644 302° West 405 466 36,000  Level Salt Lake Center
Sat 01:52:51 PM 44.3267 -118.5969 302° West 404 465 36,000  Level Salt Lake Center
Sat 01:53:53 PM 44.3856 -118.7303 302° West 403 464 36,000  Level Salt Lake Center
Sat 01:54:55 PM 44.4439 -118.8642 301° West 405 466 36,000  Level Salt Lake Center
Sat 01:55:57 PM 44.5022 -118.9981 301° West 404 465 36,000  Level Salt Lake Center
Sat 01:56:59 PM 44.5608 -119.1333 301° West 405 466 36,000  Level Salt Lake Center
Sat 01:58:01 PM 44.6314 -119.2956 301° West 406 467 36,000  Level Salt Lake Center
Sat 01:59:03 PM 44.6906 -119.4311 302° West 408 470 36,000  Level Salt Lake Center
Sat 02:00:05 PM 44.7494 -119.5686 301° West 410 472 36,000  Level Salt Lake Center
Sat 02:01:07 PM 44.8086 -119.7075 301° West 412 474 36,000  Level Salt Lake Center
Sat 02:02:09 PM 44.8683 -119.8478 301° West 415 478 36,000  Level Salt Lake Center
Sat 02:03:24 PM 44.9497 -120.0425 301° West 416 479 36,000  Level Seattle Center
Sat 02:04:26 PM 45.0033 -120.1706 301° West 422 486 36,000 -244 Level Seattle Center
Sat 02:05:27 PM 45.0628 -120.3122 301° West 419 482 35,500 -1,721 Descending Seattle Center
Sat 02:06:28 PM 45.1222 -120.4569 300° West 424 488 32,500 -3,148 Descending Seattle Center
Sat 02:07:29 PM 45.1961 -120.6336 301° West 432 497 29,100 -2,780 Descending Seattle Center
Sat 02:08:31 PM 45.2556 -120.7764 301° West 424 488 26,800 -2,195 Descending Seattle Center
Sat 02:09:32 PM 45.3114 -120.9169 299° West 411 473 24,600 -2,164 Descending Seattle Center
Sat 02:10:33 PM 45.3669 -121.0511 301° West 393 452 22,400 -2,066 Descending Seattle Center
Sat 02:11:34 PM 45.4189 -121.1808 300° West 379 436 20,400 -2,169 Descending Seattle Center
Sat 02:12:43 PM 45.4494 -121.3578 284° West 362 417 17,700 -2,311 Descending Seattle Center
Sat 02:13:36 PM 45.4603 -121.4628 278° West 359 413 15,700 -2,329 Descending Seattle Center
Sat 02:14:08 PM 45.4708 -121.5497 280° West 356 410 14,400 -2,032 Descending Seattle Center
Sat 02:14:38 PM 45.4772 -121.5983 281° West 349 402 13,600 -1,869 Descending Seattle Center
Sat 02:15:09 PM 45.4878 -121.6817 280° West 335 386 12,500 -1,770 Descending Seattle Center
Sat 02:15:39 PM 45.4919 -121.7278 277° West 333 383 11,800 -2,000 Descending Seattle Center
Sat 02:16:09 PM 45.5025 -121.8144 280° West 312 359 10,500 -1,574 Descending Seattle Center
Sat 02:16:40 PM 45.5056 -121.8489 277° West 311 358 10,200 -492 Descending Seattle Center
Sat 02:17:10 PM 45.4947 -121.9228 258° West 270 311 10,000 -659 Descending Seattle Center
Sat 02:18:11 PM 45.4703 -122.0133 249° West 236 272 9,200 -1,032 Descending Seattle Center
Sat 02:18:43 PM 45.4581 -122.0575 248° West 238 274 8,400 -1,419 Descending Seattle Center
Sat 02:19:44 PM 45.4486 -122.1444 261° West 234 269 7,000 -1,377 Descending Seattle Center
Sat 02:20:45 PM 45.4625 -122.2344 282° West 232 267 5,600 -1,279 Descending Seattle Center
Sat 02:21:46 PM 45.4767 -122.3211 283° West 230 265 4,400 -1,180 Descending Seattle Center
Sat 02:22:47 PM 45.5036 -122.3861 301° West 199 229 3,200 -1,073 Descending Seattle Center
Sat 02:23:49 PM 45.5289 -122.4481 300° West 184 212 2,200 -829 Descending Seattle Center
Sat 02:24:50 PM 45.5469 -122.4958 298° West 166 191 1,500 -738 Descending Seattle Center
Sat 02:25:51 PM 45.5647 -122.5439 298° West 151 174 700 -443 Descending Seattle Center
Sat 02:26:52 PM 45.5831 -122.5939 298° West 149 171 600 -98 Descending Seattle Center

Login

Don't have an account? Register now (free) for customized features, flight alerts, and more!